Time;durP1;ratioP1;P1;durP2;ratioP2;P2;SDS_P1;SDS_P2;PMS_P1;PMS_P2;Temp;Humidity;BMP_temperature;BMP_pressure;BME280_temperature;BME280_humidity;BME280_pressure;Samples;Min_cycle;Max_cycle;Signal;HPM_P1;HPM_P2
2021/10/03 00:02:16;;;;;;;27.25;21.52;;;11.20;99.90;;;;;;4991811;28;20037;-75
2021/10/03 00:04:43;;;;;;;28.35;22.85;;;11.20;99.90;;;;;;4988307;28;20065;-75
2021/10/03 00:07:12;;;;;;;23.77;20.00;;;11.10;99.90;;;;;;4990073;28;20502;-74
2021/10/03 00:09:40;;;;;;;23.00;19.27;;;11.10;99.90;;;;;;4987760;28;20061;-74
2021/10/03 00:12:08;;;;;;;25.33;19.15;;;11.10;99.90;;;;;;5005734;28;20026;-76
2021/10/03 00:14:34;;;;;;;25.33;19.75;;;11.10;99.90;;;;;;4990266;28;20053;-75
2021/10/03 00:16:59;;;;;;;24.45;19.48;;;11.10;99.90;;;;;;4990118;28;20137;-75
2021/10/03 00:19:28;;;;;;;28.00;19.00;;;11.10;99.90;;;;;;4990334;28;20407;-75
2021/10/03 00:21:58;;;;;;;28.15;20.42;;;11.00;99.90;;;;;;4990175;28;20026;-75
2021/10/03 00:24:26;;;;;;;27.25;21.15;;;11.00;99.90;;;;;;4980817;28;20109;-75
2021/10/03 00:26:52;;;;;;;23.52;19.65;;;10.90;99.90;;;;;;4991683;28;20026;-75
2021/10/03 00:29:18;;;;;;;29.58;19.10;;;10.90;99.90;;;;;;4995987;28;20042;-75
2021/10/03 00:31:44;;;;;;;22.30;17.60;;;10.80;99.90;;;;;;4994398;28;20475;-74
2021/10/03 00:34:09;;;;;;;23.88;17.17;;;10.80;99.90;;;;;;4992573;28;20034;-75
2021/10/03 00:36:35;;;;;;;18.13;16.15;;;10.80;99.90;;;;;;4994235;28;20058;-74
2021/10/03 00:39:01;;;;;;;20.55;15.77;;;10.80;99.90;;;;;;4992298;28;20111;-75
2021/10/03 00:41:27;;;;;;;20.80;14.98;;;10.70;99.90;;;;;;4993158;28;20022;-74
2021/10/03 00:43:53;;;;;;;15.35;12.82;;;10.60;99.90;;;;;;4994702;28;20030;-75
2021/10/03 00:46:19;;;;;;;20.23;13.52;;;10.60;99.90;;;;;;4991811;28;20030;-74
2021/10/03 00:48:45;;;;;;;18.95;15.15;;;10.50;99.90;;;;;;4994063;28;20360;-75
2021/10/03 00:51:10;;;;;;;20.10;15.32;;;10.40;99.90;;;;;;4993338;28;20022;-74
2021/10/03 00:53:36;;;;;;;18.25;14.45;;;10.40;99.90;;;;;;4993515;28;20022;-74
2021/10/03 00:56:02;;;;;;;22.17;16.52;;;10.40;99.90;;;;;;4994575;28;22115;-75
2021/10/03 00:58:28;;;;;;;24.08;17.63;;;10.40;99.90;;;;;;4991374;28;20041;-75
2021/10/03 01:00:54;;;;;;;23.95;16.52;;;10.30;99.90;;;;;;4992889;28;20128;-74
2021/10/03 01:03:19;;;;;;;24.85;17.70;;;10.30;99.90;;;;;;4991346;28;20080;-74
2021/10/03 01:05:45;;;;;;;20.30;15.63;;;10.30;99.90;;;;;;4993679;28;20026;-74
2021/10/03 01:08:11;;;;;;;19.83;15.55;;;10.30;99.90;;;;;;4995725;28;20030;-75
2021/10/03 01:10:37;;;;;;;19.85;16.65;;;10.30;99.90;;;;;;4996746;28;20096;-74
2021/10/03 01:13:09;;;;;;;21.40;15.88;;;10.30;99.90;;;;;;4991344;28;20479;-74
2021/10/03 01:15:40;;;;;;;20.25;16.13;;;10.30;99.90;;;;;;4991060;28;20084;-75
2021/10/03 01:18:08;;;;;;;21.30;15.90;;;10.20;99.90;;;;;;4980367;28;20042;-74
2021/10/03 01:20:34;;;;;;;22.67;17.63;;;10.20;99.90;;;;;;4993529;28;20045;-74
2021/10/03 01:23:03;;;;;;;24.15;17.95;;;10.20;99.90;;;;;;4994375;28;20109;-74
2021/10/03 01:25:32;;;;;;;25.83;18.45;;;10.10;99.90;;;;;;4992626;28;20027;-74
2021/10/03 01:27:58;;;;;;;18.70;16.55;;;10.20;99.90;;;;;;4992706;28;20073;-74
2021/10/03 01:30:25;;;;;;;23.42;17.30;;;10.00;99.90;;;;;;4993218;28;20483;-75
2021/10/03 01:32:51;;;;;;;26.55;17.98;;;10.10;99.90;;;;;;4991685;28;20034;-74
2021/10/03 01:35:19;;;;;;;21.92;16.23;;;10.00;99.90;;;;;;4993249;28;20058;-75
2021/10/03 01:37:45;;;;;;;21.35;16.60;;;9.90;99.90;;;;;;4992069;28;20050;-74
2021/10/03 01:40:12;;;;;;;21.90;16.77;;;9.90;99.90;;;;;;4992570;28;20023;-74
2021/10/03 01:42:39;;;;;;;23.48;16.83;;;9.80;99.90;;;;;;4992864;28;20058;-75
2021/10/03 01:45:08;;;;;;;21.52;16.45;;;9.90;99.90;;;;;;4990985;28;20531;-74
2021/10/03 01:47:34;;;;;;;19.50;15.25;;;9.90;99.90;;;;;;4991781;28;20068;-74
2021/10/03 01:50:00;;;;;;;20.20;15.55;;;9.90;99.90;;;;;;4992664;28;20098;-74
2021/10/03 01:52:25;;;;;;;19.15;15.85;;;9.90;99.90;;;;;;4990822;28;20094;-74
2021/10/03 01:54:51;;;;;;;22.90;17.77;;;10.00;99.90;;;;;;4992274;28;20015;-75
2021/10/03 01:57:17;;;;;;;22.20;17.23;;;10.00;99.90;;;;;;4990598;28;20113;-73
2021/10/03 01:59:42;;;;;;;21.63;16.65;;;9.90;99.90;;;;;;4992035;28;20049;-75
2021/10/03 02:02:08;;;;;;;20.05;14.88;;;10.00;99.90;;;;;;4993667;28;20060;-75
2021/10/03 02:04:34;;;;;;;20.73;16.38;;;9.90;99.90;;;;;;4990316;28;20025;-75
2021/10/03 02:07:00;;;;;;;23.10;17.85;;;9.90;99.90;;;;;;4991928;28;20042;-74
2021/10/03 02:09:27;;;;;;;23.08;18.20;;;9.90;99.90;;;;;;4990741;28;20034;-75
2021/10/03 02:11:59;;;;;;;19.92;15.10;;;9.90;99.90;;;;;;4999598;28;20030;-74
2021/10/03 02:14:30;;;;;;;25.33;18.42;;;9.90;99.90;;;;;;4990283;28;20033;-75
2021/10/03 02:16:59;;;;;;;23.98;18.90;;;9.90;99.90;;;;;;4993126;28;20096;-75
2021/10/03 02:19:27;;;;;;;21.92;17.80;;;9.90;99.90;;;;;;4992532;28;20152;-75
2021/10/03 02:21:53;;;;;;;23.15;19.02;;;9.90;99.90;;;;;;4991036;28;20026;-75
2021/10/03 02:24:19;;;;;;;24.45;18.52;;;9.90;99.90;;;;;;4989475;28;20113;-74
2021/10/03 02:26:45;;;;;;;24.08;18.48;;;9.90;99.90;;;;;;4990565;28;20030;-74
2021/10/03 02:29:11;;;;;;;27.90;17.63;;;9.90;99.90;;;;;;4992508;28;20034;-75
2021/10/03 02:31:37;;;;;;;21.20;17.33;;;9.80;99.90;;;;;;4992443;28;20056;-75
2021/10/03 02:34:03;;;;;;;24.88;18.98;;;9.80;99.90;;;;;;4988528;28;20022;-74
2021/10/03 02:36:29;;;;;;;21.23;17.70;;;9.90;99.90;;;;;;4991500;28;20035;-76
2021/10/03 02:38:55;;;;;;;24.67;19.05;;;9.80;99.90;;;;;;4982488;28;20113;-75
2021/10/03 02:41:22;;;;;;;28.73;18.90;;;9.80;99.90;;;;;;4990813;28;20575;-75
2021/10/03 02:43:52;;;;;;;22.52;18.00;;;9.80;99.90;;;;;;4992372;28;20415;-73
2021/10/03 02:46:19;;;;;;;22.33;17.75;;;9.80;99.90;;;;;;4988858;28;20113;-74
2021/10/03 02:48:50;;;;;;;28.52;18.67;;;9.80;99.90;;;;;;4989935;28;20931;-74
2021/10/03 02:51:22;;;;;;;25.38;18.30;;;9.90;99.90;;;;;;4991135;28;20113;-74
2021/10/03 02:53:49;;;;;;;21.67;18.27;;;9.80;99.90;;;;;;4991769;28;20459;-74
2021/10/03 02:56:16;;;;;;;22.55;17.65;;;9.80;99.90;;;;;;4993116;28;20387;-73
2021/10/03 02:58:42;;;;;;;20.80;18.08;;;9.80;99.90;;;;;;4989222;28;20029;-74
2021/10/03 03:01:08;;;;;;;26.42;18.77;;;9.80;99.90;;;;;;4990009;28;20432;-74
2021/10/03 03:03:35;;;;;;;21.65;18.05;;;9.80;99.90;;;;;;4991325;28;20113;-74
2021/10/03 03:06:04;;;;;;;24.00;17.42;;;9.80;99.90;;;;;;4991313;28;20074;-74
2021/10/03 03:08:30;;;;;;;21.48;18.02;;;9.70;99.90;;;;;;4991561;28;20068;-74
2021/10/03 03:10:56;;;;;;;21.80;16.90;;;9.70;99.90;;;;;;4992667;28;20483;-74
2021/10/03 03:13:22;;;;;;;21.50;17.20;;;9.70;99.90;;;;;;4991521;28;20076;-74
2021/10/03 03:15:47;;;;;;;23.38;17.05;;;9.70;99.90;;;;;;4988995;28;20325;-74
2021/10/03 03:18:13;;;;;;;25.83;18.92;;;9.70;99.90;;;;;;4990791;28;20064;-75
2021/10/03 03:20:42;;;;;;;24.27;18.30;;;9.60;99.90;;;;;;4991481;28;20033;-75
2021/10/03 03:23:07;;;;;;;24.05;19.35;;;9.60;99.90;;;;;;4992258;28;20065;-74
2021/10/03 03:25:33;;;;;;;25.73;19.52;;;9.60;99.90;;;;;;4990542;28;20497;-76
2021/10/03 03:27:59;;;;;;;24.50;18.75;;;9.60;99.90;;;;;;4988743;28;20026;-75
2021/10/03 03:30:24;;;;;;;22.27;17.15;;;9.60;99.90;;;;;;4990779;28;20030;-74
2021/10/03 03:32:50;;;;;;;20.92;16.48;;;9.50;99.90;;;;;;4991085;28;20028;-75
2021/10/03 03:35:16;;;;;;;21.13;17.00;;;9.50;99.90;;;;;;4992342;28;20085;-75
2021/10/03 03:37:41;;;;;;;19.70;15.60;;;9.50;99.90;;;;;;4989726;28;20468;-75
2021/10/03 03:40:10;;;;;;;19.95;16.08;;;9.50;99.90;;;;;;4990385;28;20046;-75
2021/10/03 03:42:36;;;;;;;19.77;15.50;;;9.40;99.90;;;;;;4990610;28;20026;-75
2021/10/03 03:45:03;;;;;;;19.20;15.40;;;9.40;99.90;;;;;;4988900;28;20030;-74
2021/10/03 03:47:28;;;;;;;17.77;15.70;;;9.40;99.90;;;;;;4991029;28;20050;-75
2021/10/03 03:49:54;;;;;;;16.48;14.40;;;9.30;99.90;;;;;;4990727;28;20081;-74
2021/10/03 03:52:20;;;;;;;21.27;16.15;;;9.30;99.90;;;;;;4988098;28;20038;-74
2021/10/03 03:54:46;;;;;;;21.20;15.38;;;9.30;99.90;;;;;;4990057;28;20101;-74
2021/10/03 03:57:13;;;;;;;17.33;14.85;;;9.20;99.90;;;;;;4988845;28;20109;-74
2021/10/03 03:59:38;;;;;;;19.17;15.02;;;9.20;99.90;;;;;;4989978;28;20053;-73
2021/10/03 04:02:04;;;;;;;20.67;14.95;;;9.20;99.90;;;;;;4991305;28;20026;-75
2021/10/03 04:04:30;;;;;;;19.92;13.98;;;9.10;99.90;;;;;;4988416;28;20034;-74
2021/10/03 04:06:55;;;;;;;21.05;15.43;;;9.10;99.90;;;;;;4990911;28;20057;-74
2021/10/03 04:09:21;;;;;;;15.80;13.82;;;9.00;99.90;;;;;;4992517;28;20514;-74
2021/10/03 04:11:47;;;;;;;14.80;12.55;;;9.00;99.90;;;;;;4990612;28;20049;-75
2021/10/03 04:14:12;;;;;;;15.40;11.00;;;8.90;99.90;;;;;;4991393;28;20041;-75
2021/10/03 04:16:38;;;;;;;21.40;12.73;;;8.80;99.90;;;;;;4986344;28;20114;-75
2021/10/03 04:19:04;;;;;;;14.50;11.60;;;8.80;99.90;;;;;;4990542;28;20050;-74
2021/10/03 04:21:30;;;;;;;16.30;11.50;;;8.70;99.90;;;;;;4987462;28;20118;-74
2021/10/03 04:23:56;;;;;;;16.80;12.60;;;8.70;99.90;;;;;;4990266;28;20029;-75
2021/10/03 04:26:22;;;;;;;13.45;12.02;;;8.70;99.90;;;;;;4988556;28;20411;-75
2021/10/03 04:28:48;;;;;;;15.60;12.63;;;8.70;99.90;;;;;;4987998;28;20030;-75
2021/10/03 04:31:13;;;;;;;17.50;13.77;;;8.60;99.90;;;;;;4990717;28;20038;-75
2021/10/03 04:33:41;;;;;;;13.45;11.38;;;8.60;99.90;;;;;;4987466;28;20086;-75
2021/10/03 04:36:10;;;;;;;15.48;12.38;;;8.50;99.90;;;;;;4990245;28;20081;-74
2021/10/03 04:38:37;;;;;;;16.30;13.45;;;8.60;99.90;;;;;;4989713;28;20056;-74
2021/10/03 04:41:03;;;;;;;18.58;13.60;;;8.60;99.90;;;;;;4991373;28;20046;-75
2021/10/03 04:43:29;;;;;;;15.27;12.38;;;8.60;99.90;;;;;;4990207;28;20035;-75
2021/10/03 04:45:55;;;;;;;18.35;13.82;;;8.60;99.90;;;;;;4985716;28;20488;-75
2021/10/03 04:48:21;;;;;;;16.00;12.60;;;8.60;99.90;;;;;;4989744;28;20073;-75
2021/10/03 04:50:47;;;;;;;17.20;14.00;;;8.50;99.90;;;;;;4988692;28;20496;-75
2021/10/03 04:53:12;;;;;;;18.38;13.85;;;8.60;99.90;;;;;;4990645;28;20300;-75
2021/10/03 04:55:38;;;;;;;18.90;14.18;;;8.60;99.90;;;;;;4989933;28;20104;-75
2021/10/03 04:58:04;;;;;;;16.50;13.48;;;8.60;99.90;;;;;;4987727;28;20035;-75
2021/10/03 05:00:30;;;;;;;16.02;13.82;;;8.60;99.90;;;;;;4989780;28;20146;-75
2021/10/03 05:02:55;;;;;;;17.45;12.82;;;8.70;99.90;;;;;;4988184;28;20030;-75
2021/10/03 05:05:22;;;;;;;14.82;12.25;;;8.70;99.90;;;;;;4992003;28;20034;-75
2021/10/03 05:07:48;;;;;;;17.10;12.85;;;8.70;99.90;;;;;;4988635;28;20038;-76
2021/10/03 05:10:13;;;;;;;16.30;13.68;;;8.80;99.90;;;;;;4989192;28;20050;-75
2021/10/03 05:12:39;;;;;;;15.35;12.45;;;8.90;99.90;;;;;;4992468;28;20068;-76
2021/10/03 05:15:05;;;;;;;17.17;14.10;;;9.00;99.90;;;;;;4993137;28;20041;-75
2021/10/03 05:17:31;;;;;;;15.52;13.38;;;9.00;99.90;;;;;;4993383;28;20136;-76
2021/10/03 05:19:57;;;;;;;14.55;12.18;;;9.00;99.90;;;;;;4993271;28;20089;-75
2021/10/03 05:22:24;;;;;;;18.75;14.68;;;9.10;99.90;;;;;;4993021;28;20046;-74
2021/10/03 05:24:51;;;;;;;16.05;13.65;;;9.20;99.90;;;;;;4993555;28;20026;-74
2021/10/03 05:27:17;;;;;;;17.98;15.02;;;9.30;99.90;;;;;;4991566;28;20030;-74
2021/10/03 05:29:43;;;;;;;19.15;14.18;;;9.40;99.90;;;;;;4989173;28;20023;-74
2021/10/03 05:32:09;;;;;;;24.92;17.13;;;9.40;99.90;;;;;;4993260;28;20022;-74
2021/10/03 05:34:34;;;;;;;18.95;14.45;;;9.50;99.90;;;;;;4988805;28;20045;-74
2021/10/03 05:37:00;;;;;;;18.35;14.75;;;9.60;99.90;;;;;;4982636;28;20058;-75
2021/10/03 05:39:26;;;;;;;20.13;16.45;;;9.70;99.90;;;;;;4987201;28;20019;-74
2021/10/03 05:41:51;;;;;;;20.90;16.85;;;9.80;99.90;;;;;;4990863;28;20058;-74
2021/10/03 05:44:17;;;;;;;20.65;16.88;;;9.90;99.90;;;;;;4991591;28;20057;-74
2021/10/03 05:46:43;;;;;;;21.02;16.80;;;10.00;99.90;;;;;;4989215;28;20037;-74
2021/10/03 05:49:08;;;;;;;22.80;16.08;;;10.20;99.90;;;;;;4988659;28;20082;-74
2021/10/03 05:51:35;;;;;;;20.15;16.75;;;10.30;99.90;;;;;;4986576;28;20097;-74
2021/10/03 05:54:02;;;;;;;23.95;17.73;;;10.30;99.90;;;;;;4987447;28;20184;-74
2021/10/03 05:56:28;;;;;;;20.25;18.05;;;10.40;99.90;;;;;;4991982;28;20085;-74
2021/10/03 05:58:53;;;;;;;21.02;16.42;;;10.50;99.90;;;;;;4992190;28;20082;-74
2021/10/03 06:01:19;;;;;;;22.38;16.35;;;10.60;99.90;;;;;;4988592;28;20352;-74
2021/10/03 06:03:44;;;;;;;20.75;17.27;;;10.70;99.90;;;;;;4989089;28;20442;-74
2021/10/03 06:06:10;;;;;;;23.17;17.55;;;10.80;99.90;;;;;;4987556;28;20549;-74
2021/10/03 06:08:36;;;;;;;21.45;16.55;;;10.90;99.90;;;;;;4990908;28;20022;-74
2021/10/03 06:11:02;;;;;;;21.88;16.02;;;10.90;99.90;;;;;;4991279;28;20086;-75
2021/10/03 06:13:27;;;;;;;23.92;17.45;;;11.00;99.90;;;;;;4988857;28;20472;-75
2021/10/03 06:15:54;;;;;;;20.77;16.08;;;11.00;99.90;;;;;;4988464;28;20022;-74
2021/10/03 06:18:21;;;;;;;19.02;15.65;;;11.10;99.90;;;;;;4989288;28;20030;-74
2021/10/03 06:20:47;;;;;;;21.27;16.65;;;11.10;99.90;;;;;;4989387;28;20403;-75
2021/10/03 06:23:15;;;;;;;19.13;15.40;;;11.10;99.90;;;;;;4991706;28;20488;-76
2021/10/03 06:25:41;;;;;;;19.77;15.18;;;11.10;99.90;;;;;;4986774;28;20087;-75
2021/10/03 06:28:07;;;;;;;20.45;16.52;;;11.20;99.90;;;;;;4987157;28;20039;-75
2021/10/03 06:30:33;;;;;;;22.08;15.75;;;11.30;99.90;;;;;;4982635;28;20027;-76
2021/10/03 06:33:00;;;;;;;19.85;15.40;;;11.30;99.90;;;;;;4988058;28;20023;-75
2021/10/03 06:35:27;;;;;;;20.05;16.60;;;11.30;99.90;;;;;;4991846;28;20018;-75
2021/10/03 06:37:53;;;;;;;19.85;16.00;;;11.40;99.90;;;;;;4989239;28;20443;-75
2021/10/03 06:40:19;;;;;;;18.83;15.55;;;11.40;99.90;;;;;;4987481;28;20081;-75
2021/10/03 06:42:44;;;;;;;22.75;15.35;;;11.50;99.90;;;;;;4987614;28;20470;-75
2021/10/03 06:45:10;;;;;;;17.23;14.27;;;11.60;99.90;;;;;;4987716;28;20372;-75
2021/10/03 06:47:36;;;;;;;19.77;15.35;;;11.70;99.90;;;;;;4991164;28;20382;-76
2021/10/03 06:50:02;;;;;;;19.52;14.68;;;11.80;99.90;;;;;;4990363;28;20095;-75
2021/10/03 06:52:27;;;;;;;24.02;15.65;;;11.90;99.90;;;;;;4987146;28;20029;-75
2021/10/03 06:54:53;;;;;;;19.55;15.23;;;12.00;99.90;;;;;;4987578;28;21399;-75
2021/10/03 06:57:19;;;;;;;22.90;16.05;;;12.10;99.90;;;;;;4987133;28;20034;-75
2021/10/03 06:59:44;;;;;;;20.30;15.63;;;12.20;99.90;;;;;;4988269;28;20034;-75
2021/10/03 07:02:25;;;;;;;18.40;15.05;;;12.30;99.90;;;;;;4992849;28;20073;-75
2021/10/03 07:04:53;;;;;;;18.23;14.60;;;12.40;99.90;;;;;;4986400;28;20088;-76
2021/10/03 07:07:19;;;;;;;17.95;14.70;;;12.40;99.90;;;;;;4987801;28;20041;-76
2021/10/03 07:09:44;;;;;;;18.20;14.43;;;12.50;99.90;;;;;;4986429;28;20538;-75
2021/10/03 07:12:10;;;;;;;17.38;13.50;;;12.60;99.90;;;;;;4996101;28;20035;-75
2021/10/03 07:14:37;;;;;;;22.10;14.13;;;12.60;99.90;;;;;;4987396;28;20035;-74
2021/10/03 07:17:02;;;;;;;19.42;14.10;;;12.70;99.90;;;;;;4989203;28;20030;-74
2021/10/03 07:19:28;;;;;;;18.67;14.45;;;12.70;99.90;;;;;;4987273;28;20031;-75
2021/10/03 07:21:54;;;;;;;18.80;13.38;;;12.70;99.90;;;;;;4985916;28;20022;-75
2021/10/03 07:24:19;;;;;;;18.23;14.13;;;12.90;99.90;;;;;;4987464;28;20038;-75
2021/10/03 07:26:45;;;;;;;22.33;12.75;;;12.90;99.90;;;;;;4988442;28;20488;-75
2021/10/03 07:29:11;;;;;;;15.07;13.05;;;13.00;99.90;;;;;;5005393;28;20041;-75
2021/10/03 07:31:36;;;;;;;17.23;13.57;;;13.00;99.90;;;;;;4987801;28;20049;-75
2021/10/03 07:34:02;;;;;;;19.20;13.00;;;13.10;99.90;;;;;;4985807;28;20506;-75
2021/10/03 07:36:28;;;;;;;19.15;12.98;;;13.20;99.90;;;;;;4987676;28;20637;-76
2021/10/03 07:38:54;;;;;;;19.67;13.60;;;13.20;99.90;;;;;;4985607;28;20122;-75
2021/10/03 07:41:21;;;;;;;17.90;12.95;;;13.30;99.90;;;;;;4987877;28;20034;-75
2021/10/03 07:43:54;;;;;;;14.63;12.10;;;13.40;99.90;;;;;;4986876;28;20041;-75
2021/10/03 07:46:21;;;;;;;16.85;11.85;;;13.50;99.90;;;;;;4986377;28;20038;-73
2021/10/03 07:48:47;;;;;;;21.45;12.93;;;13.60;99.90;;;;;;4986430;28;20085;-76
2021/10/03 07:51:14;;;;;;;17.70;12.77;;;13.70;99.90;;;;;;4986237;28;20035;-76
2021/10/03 07:53:40;;;;;;;16.90;13.38;;;13.80;99.90;;;;;;4990917;28;20515;-75
2021/10/03 07:56:06;;;;;;;16.10;12.85;;;13.90;99.90;;;;;;4989601;28;20062;-75
2021/10/03 07:58:32;;;;;;;16.10;11.93;;;14.00;99.90;;;;;;4986883;28;20064;-74
2021/10/03 08:00:58;;;;;;;16.58;12.00;;;14.00;99.90;;;;;;4989074;28;20547;-74
2021/10/03 08:03:23;;;;;;;20.52;12.65;;;14.10;99.90;;;;;;4988896;28;20041;-75
2021/10/03 08:05:49;;;;;;;14.73;10.75;;;14.10;99.90;;;;;;4990307;28;20067;-75
2021/10/03 08:08:15;;;;;;;16.45;11.38;;;14.20;99.90;;;;;;4992104;28;20030;-75
2021/10/03 08:10:42;;;;;;;14.68;11.02;;;14.20;99.90;;;;;;4980691;28;20455;-74
2021/10/03 08:13:11;;;;;;;13.40;10.90;;;14.30;99.90;;;;;;4990823;28;20030;-75
2021/10/03 08:15:39;;;;;;;15.50;10.82;;;14.40;99.90;;;;;;4986997;28;20015;-75
2021/10/03 08:18:05;;;;;;;12.65;10.40;;;14.50;99.90;;;;;;4989755;28;20397;-75
2021/10/03 08:20:32;;;;;;;17.83;11.70;;;14.60;99.90;;;;;;4989141;28;20066;-73
2021/10/03 08:22:57;;;;;;;14.60;10.65;;;14.60;99.90;;;;;;4987912;28;20114;-75
2021/10/03 08:25:23;;;;;;;12.45;10.90;;;14.70;99.90;;;;;;4984277;28;20105;-75
2021/10/03 08:27:50;;;;;;;15.57;11.50;;;14.80;99.90;;;;;;4985879;28;20029;-75
2021/10/03 08:30:16;;;;;;;15.35;10.73;;;14.80;99.90;;;;;;4986245;28;20049;-75
2021/10/03 08:32:42;;;;;;;13.18;9.80;;;14.90;99.90;;;;;;4986809;28;20101;-75
2021/10/03 08:35:08;;;;;;;12.80;9.63;;;14.90;99.90;;;;;;4990178;28;20117;-75
2021/10/03 08:37:35;;;;;;;14.35;10.13;;;15.00;99.90;;;;;;4975322;28;20391;-75
2021/10/03 08:40:03;;;;;;;12.90;9.45;;;15.10;99.90;;;;;;4969905;28;20039;-75
2021/10/03 08:42:28;;;;;;;10.50;9.43;;;15.20;99.90;;;;;;4981834;28;20046;-75
2021/10/03 08:44:54;;;;;;;12.82;10.05;;;15.30;99.90;;;;;;4987555;28;20097;-75
2021/10/03 08:47:23;;;;;;;14.85;9.73;;;15.30;99.90;;;;;;4977371;28;20165;-75
2021/10/03 08:49:49;;;;;;;12.98;9.75;;;15.40;99.90;;;;;;4992360;28;20034;-75
2021/10/03 08:52:15;;;;;;;12.65;10.30;;;15.40;99.90;;;;;;4986942;28;20041;-75
2021/10/03 08:54:41;;;;;;;20.38;12.57;;;15.50;99.90;;;;;;4988864;28;20034;-75
2021/10/03 08:57:07;;;;;;;14.45;9.52;;;15.60;99.90;;;;;;4984517;28;20089;-75
2021/10/03 08:59:34;;;;;;;14.43;9.48;;;15.60;99.90;;;;;;4982885;28;20419;-75
2021/10/03 09:02:03;;;;;;;14.52;8.95;;;15.70;99.90;;;;;;4992211;28;20157;-75
2021/10/03 09:04:31;;;;;;;12.88;9.60;;;15.70;99.90;;;;;;4985561;28;20069;-76
2021/10/03 09:07:14;;;;;;;12.68;10.23;;;15.80;99.90;;;;;;4989185;28;20037;-76
2021/10/03 09:09:49;;;;;;;11.90;9.40;;;15.90;99.90;;;;;;4985017;28;20041;-75
2021/10/03 09:12:36;;;;;;;12.80;9.15;;;15.90;99.90;;;;;;4985607;28;20133;-76
2021/10/03 09:15:12;;;;;;;11.45;8.20;;;15.90;99.90;;;;;;4988176;28;20121;-76
2021/10/03 09:17:38;;;;;;;9.50;8.00;;;16.00;99.90;;;;;;4981571;28;20042;-76
2021/10/03 09:20:08;;;;;;;9.80;8.10;;;16.10;99.90;;;;;;4988801;28;20030;-75
2021/10/03 09:22:59;;;;;;;13.55;9.15;;;16.20;99.90;;;;;;4984926;28;20492;-74
2021/10/03 09:25:49;;;;;;;13.60;8.65;;;16.20;99.90;;;;;;4981866;28;20035;-75
2021/10/03 09:28:24;;;;;;;10.38;8.98;;;16.20;99.90;;;;;;4991407;28;20029;-74
2021/10/03 09:31:06;;;;;;;10.43;8.93;;;16.30;99.90;;;;;;4982488;28;20038;-75
2021/10/03 09:33:47;;;;;;;14.45;9.02;;;16.40;99.90;;;;;;4989809;28;20019;-73
2021/10/03 09:36:15;;;;;;;18.00;9.18;;;16.40;99.90;;;;;;4981663;28;20061;-74
2021/10/03 09:38:49;;;;;;;13.52;9.10;;;16.40;99.90;;;;;;4991642;28;20042;-74
2021/10/03 09:41:20;;;;;;;14.45;8.65;;;16.50;99.90;;;;;;4980836;28;20023;-74
2021/10/03 09:43:46;;;;;;;12.85;8.25;;;16.50;99.90;;;;;;4990811;28;20030;-74
2021/10/03 09:46:32;;;;;;;11.65;8.82;;;16.50;99.90;;;;;;4982048;28;20023;-74
2021/10/03 09:48:58;;;;;;;10.85;8.20;;;16.60;99.90;;;;;;4990665;28;20030;-74
2021/10/03 09:51:25;;;;;;;12.20;8.32;;;16.70;99.90;;;;;;4980932;28;20372;-74
2021/10/03 09:53:52;;;;;;;8.95;7.47;;;16.70;99.90;;;;;;4990488;28;20448;-75
2021/10/03 09:56:18;;;;;;;13.57;8.70;;;16.70;99.90;;;;;;4985247;28;20392;-74
2021/10/03 09:58:46;;;;;;;12.93;8.02;;;16.70;99.90;;;;;;4989087;28;20423;-74
2021/10/03 10:01:13;;;;;;;57.10;46.50;;;16.70;99.90;;;;;;4987017;28;20141;-74
2021/10/03 10:03:40;;;;;;;14.50;10.30;;;16.70;99.90;;;;;;4984666;28;20041;-75
2021/10/03 10:06:06;;;;;;;11.50;8.60;;;16.70;99.90;;;;;;4989372;28;20378;-74
2021/10/03 10:08:34;;;;;;;10.68;8.30;;;16.80;99.90;;;;;;4983903;28;20736;-74
2021/10/03 10:11:08;;;;;;;13.43;8.30;;;16.80;99.90;;;;;;4991461;28;20023;-74
2021/10/03 10:13:36;;;;;;;10.15;8.00;;;16.90;99.90;;;;;;4980917;28;20038;-74
2021/10/03 10:16:32;;;;;;;10.70;7.90;;;16.90;99.90;;;;;;4985430;28;20517;-73
2021/10/03 10:19:26;;;;;;;16.02;8.50;;;17.00;99.90;;;;;;4976524;28;20030;-73
2021/10/03 10:22:14;;;;;;;10.93;7.63;;;17.10;99.90;;;;;;4986924;28;20026;-74
2021/10/03 10:24:54;;;;;;;14.02;8.05;;;17.10;99.90;;;;;;4984284;28;20770;-77
2021/10/03 10:27:28;;;;;;;9.32;7.22;;;17.10;99.90;;;;;;4983590;28;20866;-75
2021/10/03 10:30:11;;;;;;;15.43;8.18;;;17.10;99.90;;;;;;4984660;28;20023;-76
2021/10/03 10:32:55;;;;;;;9.68;7.68;;;17.20;99.90;;;;;;4982610;28;20030;-77
2021/10/03 10:35:25;;;;;;;9.60;7.53;;;17.30;99.90;;;;;;4988337;28;20034;-76
2021/10/03 10:37:51;;;;;;;;;;;17.30;99.90;;;;;;4984291;28;20517;-76
2021/10/03 10:40:31;;;;;;;10.52;7.38;;;17.40;99.90;;;;;;4983036;28;19910;-76
2021/10/03 10:43:02;;;;;;;10.98;6.97;;;17.30;99.90;;;;;;4983649;28;20026;-75
2021/10/03 10:45:28;;;;;;;8.80;6.78;;;17.30;99.90;;;;;;4987303;28;20022;-76
2021/10/03 10:48:15;;;;;;;12.63;7.55;;;17.30;99.90;;;;;;4982846;28;20495;-76
2021/10/03 10:50:43;;;;;;;13.88;7.05;;;17.30;99.90;;;;;;4982661;28;20034;-76
2021/10/03 10:53:20;;;;;;;11.48;6.95;;;17.30;99.90;;;;;;4975205;28;20081;-78
2021/10/03 10:56:06;;;;;;;9.98;7.53;;;17.30;99.90;;;;;;4982513;28;20057;-76
2021/10/03 10:58:36;;;;;;;9.05;7.78;;;17.30;99.90;;;;;;4985371;28;20077;-76
2021/10/03 11:01:07;;;;;;;18.73;13.00;;;17.30;99.90;;;;;;4978131;28;20655;-76
2021/10/03 11:03:41;;;;;;;12.02;7.97;;;17.30;99.90;;;;;;4981844;28;20038;-76
2021/10/03 11:06:33;;;;;;;11.43;7.03;;;17.30;99.90;;;;;;4968511;28;20038;-75
2021/10/03 11:09:05;;;;;;;10.95;6.88;;;17.40;99.90;;;;;;4979291;28;20574;-75
2021/10/03 11:11:39;;;;;;;11.35;7.03;;;17.40;99.90;;;;;;4982868;28;20407;-75
2021/10/03 11:14:05;;;;;;;8.70;7.15;;;17.40;99.90;;;;;;4984662;28;20062;-75
2021/10/03 11:16:30;;;;;;;12.85;7.05;;;17.40;99.90;;;;;;4979046;28;20500;-76
2021/10/03 11:19:07;;;;;;;14.25;6.82;;;17.50;99.90;;;;;;4987580;28;20030;-76
2021/10/03 11:21:35;;;;;;;10.52;6.30;;;17.60;99.90;;;;;;4981182;28;20014;-75
2021/10/03 11:24:08;;;;;;;8.30;6.30;;;17.70;99.90;;;;;;4983740;28;20035;-76
2021/10/03 11:27:05;;;;;;;10.10;6.40;;;17.70;99.90;;;;;;4979643;28;20495;-75
2021/10/03 11:29:34;;;;;;;8.55;6.00;;;17.70;99.90;;;;;;4985923;28;20068;-76
2021/10/03 11:32:02;;;;;;;8.63;6.75;;;17.70;99.90;;;;;;4988656;28;20034;-75
2021/10/03 11:34:34;;;;;;;7.68;6.32;;;17.80;99.90;;;;;;4972989;28;20102;-75
2021/10/03 11:37:02;;;;;;;11.23;6.07;;;17.70;99.90;;;;;;4983244;28;20082;-75
2021/10/03 11:39:59;;;;;;;7.47;6.20;;;17.70;99.90;;;;;;4971325;28;20066;-75
2021/10/03 11:42:32;;;;;;;7.50;5.78;;;17.70;99.90;;;;;;4980532;28;20113;-75
2021/10/03 11:45:25;;;;;;;11.00;6.20;;;17.70;99.90;;;;;;4976046;28;20030;-75
2021/10/03 11:47:55;;;;;;;9.38;6.85;;;17.70;99.90;;;;;;4983834;28;20022;-75
2021/10/03 11:50:23;;;;;;;8.15;5.85;;;17.70;99.90;;;;;;4981988;28;20034;-75
2021/10/03 11:52:50;;;;;;;11.13;6.70;;;17.80;99.90;;;;;;4982136;28;20137;-75
2021/10/03 11:55:33;;;;;;;8.63;6.22;;;17.80;99.90;;;;;;4981516;28;20606;-75
2021/10/03 11:58:07;;;;;;;7.03;5.55;;;17.80;99.90;;;;;;4980424;28;20038;-75
2021/10/03 12:00:33;;;;;;;7.35;6.07;;;17.80;99.90;;;;;;4982864;28;20030;-75
2021/10/03 12:03:07;;;;;;;8.82;6.85;;;17.80;99.90;;;;;;4981108;28;20030;-75
2021/10/03 12:05:33;;;;;;;8.60;6.32;;;17.90;99.90;;;;;;4983949;28;20141;-76
2021/10/03 12:08:02;;;;;;;11.98;6.13;;;17.80;99.90;;;;;;4980397;28;20033;-75
2021/10/03 12:10:39;;;;;;;6.88;5.65;;;17.90;99.90;;;;;;4982875;28;20034;-75
2021/10/03 12:13:16;;;;;;;9.90;6.13;;;18.00;99.90;;;;;;4983207;28;20038;-75
2021/10/03 12:15:43;;;;;;;6.72;5.78;;;18.10;99.90;;;;;;4983373;28;20545;-75
2021/10/03 12:18:12;;;;;;;7.90;5.68;;;18.20;99.90;;;;;;4984194;28;20042;-75
2021/10/03 12:20:53;;;;;;;9.05;5.80;;;18.20;99.90;;;;;;4989975;28;20033;-75
2021/10/03 12:23:20;;;;;;;7.47;4.53;;;18.30;99.90;;;;;;4994282;28;20038;-75
2021/10/03 12:25:50;;;;;;;9.65;6.03;;;18.30;99.90;;;;;;4987685;28;20037;-75
2021/10/03 12:28:16;;;;;;;9.85;5.57;;;18.30;99.90;;;;;;4988675;28;20042;-74
2021/10/03 12:30:48;;;;;;;9.65;6.18;;;18.20;99.90;;;;;;4989216;28;20023;-74
2021/10/03 12:33:14;;;;;;;9.10;5.80;;;18.20;99.90;;;;;;4988813;28;20030;-75
2021/10/03 12:35:41;;;;;;;10.32;5.55;;;18.30;99.90;;;;;;4988137;28;20022;-75
2021/10/03 12:38:06;;;;;;;8.32;5.80;;;18.30;99.90;;;;;;4993576;28;20084;-75
2021/10/03 12:40:33;;;;;;;7.85;5.75;;;18.30;99.90;;;;;;4988383;28;20030;-75
2021/10/03 12:42:58;;;;;;;7.88;6.00;;;18.30;99.90;;;;;;4989171;28;20022;-75